Time;durP1;ratioP1;P1;durP2;ratioP2;P2;SDS_P1;SDS_P2;PMS_P1;PMS_P2;Temp;Humidity;BMP_temperature;BMP_pressure;BME280_temperature;BME280_humidity;BME280_pressure;Samples;Min_cycle;Max_cycle;Signal;HPM_P1;HPM_P2
2023/08/16 00:01:31;;;;;;;9.02;7.20;;;;;;;27.24;69.38;100911.97;4898426;29;20064;-70
2023/08/16 00:03:58;;;;;;;8.38;7.10;;;;;;;27.22;69.75;100903.13;4898041;29;20069;-70
2023/08/16 00:06:27;;;;;;;8.18;7.43;;;;;;;27.23;70.09;100910.34;4897930;29;20064;-70
2023/08/16 00:08:58;;;;;;;8.50;7.50;;;;;;;27.25;68.99;100907.97;4897626;29;20492;-70
2023/08/16 00:11:28;;;;;;;7.95;7.00;;;;;;;27.19;68.17;100906.69;4898315;29;20101;-71
2023/08/16 00:13:56;;;;;;;7.28;6.60;;;;;;;27.07;67.48;100919.84;4897491;29;20071;-71
2023/08/16 00:16:24;;;;;;;6.47;5.85;;;;;;;27.03;67.88;100918.97;4897799;29;20048;-71
2023/08/16 00:18:52;;;;;;;7.55;6.75;;;;;;;27.02;68.53;100911.75;4898189;29;20060;-70
2023/08/16 00:21:20;;;;;;;7.15;6.50;;;;;;;26.97;67.80;100914.91;4898138;29;20048;-71
2023/08/16 00:23:48;;;;;;;7.40;6.70;;;;;;;26.91;68.46;100908.00;4898014;29;20048;-70
2023/08/16 00:26:16;;;;;;;7.03;6.32;;;;;;;26.92;67.20;100904.84;4897108;29;20052;-70
2023/08/16 00:28:45;;;;;;;6.07;5.47;;;;;;;26.82;67.16;100900.69;4897389;29;20055;-70
2023/08/16 00:31:13;;;;;;;6.97;5.75;;;;;;;26.88;66.23;100897.56;4897579;29;20407;-71
2023/08/16 00:33:41;;;;;;;6.53;5.10;;;;;;;26.82;64.66;100897.06;4897508;29;20057;-70
2023/08/16 00:36:09;;;;;;;6.95;5.03;;;;;;;26.81;64.92;100893.47;4897765;29;20050;-70
2023/08/16 00:38:42;;;;;;;5.65;4.70;;;;;;;26.77;62.89;100900.22;4896364;29;20099;-71
2023/08/16 00:41:13;;;;;;;4.50;4.10;;;;;;;26.72;62.41;100900.59;4897780;29;20048;-70
2023/08/16 00:43:41;;;;;;;4.50;3.63;;;;;;;26.69;61.44;100911.38;4897486;29;20305;-70
2023/08/16 00:46:11;;;;;;;6.82;3.78;;;;;;;26.60;61.09;100907.25;4897252;29;20500;-70
2023/08/16 00:48:43;;;;;;;3.47;3.17;;;;;;;26.53;61.18;100913.59;4897400;29;20067;-71
2023/08/16 00:51:11;;;;;;;3.67;3.38;;;;;;;26.42;62.61;100919.06;4897558;29;20041;-70
2023/08/16 00:53:40;;;;;;;3.70;3.40;;;;;;;26.39;60.55;100919.84;4897749;29;20057;-71
2023/08/16 00:56:14;;;;;;;3.45;3.15;;;;;;;26.33;60.89;100918.56;4896984;29;20057;-70
2023/08/16 00:58:43;;;;;;;3.80;3.38;;;;;;;26.16;61.42;100912.31;4896480;29;20060;-71
2023/08/16 01:01:11;;;;;;;3.00;2.70;;;;;;;26.19;61.73;100911.53;4896198;29;20052;-70
2023/08/16 01:03:40;;;;;;;3.15;2.72;;;;;;;26.17;62.49;100917.56;4897498;29;20053;-71
2023/08/16 01:06:08;;;;;;;2.72;2.53;;;;;;;26.15;61.06;100913.50;4897024;29;20055;-71
2023/08/16 01:08:37;;;;;;;2.90;2.42;;;;;;;26.10;62.90;100913.84;4896037;29;20407;-70
2023/08/16 01:11:29;;;;;;;3.55;2.70;;;;;;;26.12;60.75;100908.66;4897311;29;20506;-71
2023/08/16 01:14:10;;;;;;;2.63;2.40;;;;;;;26.15;60.58;100905.09;4927162;29;20045;-69
2023/08/16 01:16:42;;;;;;;2.90;2.55;;;;;;;26.20;60.60;100912.34;4897101;29;20068;-70
2023/08/16 01:19:13;;;;;;;2.92;2.60;;;;;;;26.23;60.10;100906.81;4897441;29;20424;-71
2023/08/16 01:21:54;;;;;;;2.63;2.42;;;;;;;26.27;59.82;100907.69;4897321;29;20068;-71
2023/08/16 01:24:30;;;;;;;3.85;2.20;;;;;;;26.26;59.64;100905.25;4897581;29;20053;-71
2023/08/16 01:26:58;;;;;;;2.55;2.28;;;;;;;26.33;59.10;100910.94;4927342;29;20056;-71
2023/08/16 01:29:29;;;;;;;2.45;2.33;;;;;;;26.30;59.30;100903.31;4895753;29;20044;-70
2023/08/16 01:31:58;;;;;;;3.22;2.28;;;;;;;26.38;58.75;100905.00;4895984;29;20044;-70
2023/08/16 01:34:26;;;;;;;4.28;2.17;;;;;;;26.42;59.00;100905.06;4897099;29;20060;-71
2023/08/16 01:36:54;;;;;;;2.17;1.80;;;;;;;26.47;57.88;100898.28;4897429;29;20056;-71
2023/08/16 01:39:22;;;;;;;2.05;1.90;;;;;;;26.43;57.57;100904.69;4896544;29;20048;-70
2023/08/16 01:41:55;;;;;;;3.20;2.05;;;;;;;26.43;57.02;100901.06;4896811;29;20057;-70
2023/08/16 01:44:24;;;;;;;2.70;1.70;;;;;;;26.37;57.63;100906.19;4895512;29;20068;-70
2023/08/16 01:46:54;;;;;;;3.00;2.13;;;;;;;26.37;57.16;100900.59;4897439;29;20083;-70
2023/08/16 01:49:22;;;;;;;1.83;1.73;;;;;;;26.40;56.74;100899.03;4897260;29;20053;-71
2023/08/16 01:51:52;;;;;;;2.10;1.90;;;;;;;26.43;55.94;100898.25;4896804;29;20056;-70
2023/08/16 01:54:20;;;;;;;1.75;1.65;;;;;;;26.40;56.25;100899.03;4929009;29;20052;-71
2023/08/16 01:56:49;;;;;;;1.60;1.50;;;;;;;26.32;56.97;100897.31;4900303;29;20057;-70
2023/08/16 01:59:17;;;;;;;1.60;1.50;;;;;;;26.26;56.60;100894.84;4899238;29;20057;-70
2023/08/16 02:01:45;;;;;;;2.25;2.05;;;;;;;26.24;56.29;100894.41;4899025;29;20052;-71
2023/08/16 02:04:14;;;;;;;1.90;1.80;;;;;;;26.18;57.00;100904.31;4900181;29;20063;-71
2023/08/16 02:06:43;;;;;;;2.05;1.90;;;;;;;26.16;57.08;100898.28;4898995;29;20057;-71
2023/08/16 02:09:11;;;;;;;1.88;1.52;;;;;;;26.17;58.19;100902.72;4900109;29;20063;-71
2023/08/16 02:11:39;;;;;;;2.30;1.38;;;;;;;26.14;57.40;100903.44;4898648;29;20045;-70
2023/08/16 02:14:08;;;;;;;1.83;1.73;;;;;;;26.12;57.42;100905.84;4898454;29;20052;-71
2023/08/16 02:16:36;;;;;;;1.98;1.88;;;;;;;25.82;57.59;100901.00;4900302;29;20052;-70
2023/08/16 02:19:04;;;;;;;3.47;1.60;;;;;;;25.92;56.76;100897.56;4900156;29;20067;-71
2023/08/16 02:21:32;;;;;;;1.80;1.70;;;;;;;26.14;57.45;100903.44;4899907;29;20044;-71
2023/08/16 02:24:00;;;;;;;1.73;1.63;;;;;;;26.25;55.83;100896.03;4898935;29;20056;-70
2023/08/16 02:26:28;;;;;;;2.08;1.90;;;;;;;26.20;56.25;100899.13;4900339;29;20059;-71
2023/08/16 02:28:56;;;;;;;1.83;1.65;;;;;;;26.27;55.92;100895.66;4899883;29;20571;-71
2023/08/16 02:31:24;;;;;;;2.42;1.92;;;;;;;26.35;55.83;100902.97;4900055;29;20508;-71
2023/08/16 02:33:52;;;;;;;1.85;1.75;;;;;;;26.30;55.80;100901.31;4900174;29;20052;-71
2023/08/16 02:36:21;;;;;;;1.92;1.77;;;;;;;26.33;56.21;100894.13;4899260;29;20072;-71
2023/08/16 02:38:49;;;;;;;1.88;1.77;;;;;;;26.35;57.19;100896.56;4899366;29;20397;-71
2023/08/16 02:41:17;;;;;;;2.22;2.03;;;;;;;26.25;57.19;100893.22;4899854;29;20488;-71
2023/08/16 02:43:45;;;;;;;1.98;1.48;;;;;;;26.19;58.12;100889.09;4900206;29;20063;-70
2023/08/16 02:46:14;;;;;;;2.88;2.15;;;;;;;26.15;57.59;100889.06;4899280;29;20067;-71
2023/08/16 02:48:42;;;;;;;1.92;1.83;;;;;;;26.08;58.37;100891.78;4897918;29;20052;-71
2023/08/16 02:51:10;;;;;;;2.80;2.10;;;;;;;26.00;58.43;100876.06;4897977;29;20064;-71
2023/08/16 02:53:38;;;;;;;1.95;1.83;;;;;;;26.08;57.96;100885.34;4897547;29;20067;-71
2023/08/16 02:56:07;;;;;;;2.28;1.90;;;;;;;26.12;56.83;100886.22;4899150;29;20060;-71
2023/08/16 02:58:35;;;;;;;1.58;1.48;;;;;;;26.08;59.38;100877.75;4897782;29;20064;-70
2023/08/16 03:01:03;;;;;;;2.30;2.00;;;;;;;26.01;59.81;100880.47;4898899;29;20056;-70
2023/08/16 03:03:31;;;;;;;1.77;1.65;;;;;;;25.98;60.16;100873.63;4898002;29;20057;-71
2023/08/16 03:05:59;;;;;;;1.80;1.70;;;;;;;25.87;60.11;100881.06;4898709;29;20056;-70
2023/08/16 03:08:27;;;;;;;2.10;1.90;;;;;;;25.82;59.29;100878.59;4898312;29;20051;-71
2023/08/16 03:10:55;;;;;;;2.28;2.17;;;;;;;25.76;60.15;100872.50;4929266;29;20072;-70
2023/08/16 03:13:23;;;;;;;2.42;1.90;;;;;;;25.72;61.08;100874.44;4899622;29;20049;-70
2023/08/16 03:15:51;;;;;;;1.90;1.80;;;;;;;25.69;61.07;100880.78;4898895;29;20061;-70
2023/08/16 03:18:19;;;;;;;2.40;2.20;;;;;;;25.67;61.35;100877.56;4897727;29;20057;-71
2023/08/16 03:20:47;;;;;;;2.35;1.88;;;;;;;25.57;62.06;100887.44;4898966;29;20053;-72
2023/08/16 03:23:15;;;;;;;2.13;2.00;;;;;;;25.53;61.32;100892.97;4913079;29;20057;-71
2023/08/16 03:25:44;;;;;;;3.53;1.95;;;;;;;25.45;61.99;100889.22;4897518;29;20408;-71
2023/08/16 03:28:12;;;;;;;2.78;2.38;;;;;;;25.47;61.58;100889.66;4897132;29;20501;-71
2023/08/16 03:30:41;;;;;;;2.33;2.13;;;;;;;25.48;61.58;100893.25;4897246;29;20059;-71
2023/08/16 03:33:09;;;;;;;2.17;2.08;;;;;;;25.48;62.58;100890.47;4897664;29;20400;-71
2023/08/16 03:35:37;;;;;;;2.85;2.58;;;;;;;25.46;62.80;100890.03;4898673;29;20056;-70
2023/08/16 03:38:05;;;;;;;2.50;2.30;;;;;;;25.44;62.43;100886.78;4898911;29;20060;-71
2023/08/16 03:40:33;;;;;;;3.25;2.65;;;;;;;25.47;62.28;100888.84;4896645;29;20527;-71
2023/08/16 03:43:02;;;;;;;3.13;2.78;;;;;;;25.44;63.01;100895.19;4898597;29;20053;-71
2023/08/16 03:45:31;;;;;;;3.42;2.70;;;;;;;25.42;62.94;100903.97;4896453;29;20059;-71
2023/08/16 03:47:59;;;;;;;2.80;2.60;;;;;;;25.41;63.39;100902.34;4896987;29;20072;-71
2023/08/16 03:50:27;;;;;;;2.80;2.60;;;;;;;25.38;64.06;100903.13;4896502;29;20052;-71
2023/08/16 03:52:57;;;;;;;5.57;2.85;;;;;;;25.37;64.26;100898.69;4898773;29;20071;-71
2023/08/16 03:55:25;;;;;;;4.80;3.08;;;;;;;25.43;63.32;100900.00;4897443;29;20063;-69
2023/08/16 03:57:53;;;;;;;3.03;2.72;;;;;;;25.48;64.09;100904.47;4897609;29;20504;-70
2023/08/16 04:00:23;;;;;;;3.08;2.78;;;;;;;25.41;64.51;100910.75;4896377;29;20056;-70
2023/08/16 04:02:51;;;;;;;2.65;2.45;;;;;;;25.40;66.06;100917.53;4898142;29;20052;-70
2023/08/16 04:05:21;;;;;;;7.43;3.30;;;;;;;25.46;68.18;100920.84;4903448;29;20061;-70
2023/08/16 04:07:49;;;;;;;5.90;3.83;;;;;;;25.36;72.69;100914.69;4897936;29;20060;-71
2023/08/16 04:10:17;;;;;;;5.97;3.60;;;;;;;25.01;74.56;100918.47;4897984;29;20053;-72
2023/08/16 04:12:45;;;;;;;9.88;4.18;;;;;;;24.65;77.21;100917.75;4898192;29;20064;-71
2023/08/16 04:15:13;;;;;;;14.00;5.63;;;;;;;24.33;77.05;100924.28;4896709;29;20415;-72
2023/08/16 04:17:41;;;;;;;7.80;4.15;;;;;;;24.03;76.81;100930.41;4897687;29;20056;-72
2023/08/16 04:20:10;;;;;;;5.50;3.50;;;;;;;23.95;76.31;100931.41;4896345;29;20045;-72
2023/08/16 04:22:38;;;;;;;4.03;3.08;;;;;;;24.28;69.77;100935.75;4896072;29;20057;-69
2023/08/16 04:25:06;;;;;;;4.85;3.30;;;;;;;24.45;70.85;100936.53;4898095;29;20053;-71
2023/08/16 04:27:34;;;;;;;4.45;3.30;;;;;;;24.59;70.03;100944.41;4895631;29;20056;-72
2023/08/16 04:30:02;;;;;;;2.63;2.42;;;;;;;24.71;66.67;100938.66;4927123;29;20049;-72
2023/08/16 04:32:30;;;;;;;3.88;3.13;;;;;;;24.83;64.11;100946.13;4895948;29;20056;-71
2023/08/16 04:34:58;;;;;;;3.65;2.97;;;;;;;24.89;65.49;100941.84;4897697;29;20404;-71
2023/08/16 04:37:26;;;;;;;3.20;2.67;;;;;;;24.96;64.82;100941.16;4896565;29;20754;-71
2023/08/16 04:39:54;;;;;;;3.10;2.90;;;;;;;24.93;67.08;100945.50;4897206;29;20063;-72
2023/08/16 04:42:22;;;;;;;4.38;3.00;;;;;;;24.86;68.68;100944.56;4895775;29;20048;-71
2023/08/16 04:44:51;;;;;;;5.90;2.70;;;;;;;24.78;70.73;100949.19;4895522;29;20059;-72
2023/08/16 04:47:18;;;;;;;4.18;3.17;;;;;;;24.83;70.27;100943.34;4895873;29;20056;-71
2023/08/16 04:49:46;;;;;;;5.80;3.30;;;;;;;24.82;71.40;100945.31;4895728;29;20499;-72
2023/08/16 04:52:16;;;;;;;4.97;3.35;;;;;;;24.89;71.39;100944.66;4881094;29;20052;-72
2023/08/16 04:54:44;;;;;;;4.78;2.83;;;;;;;24.83;72.10;100940.53;4895531;29;20074;-72
2023/08/16 04:57:12;;;;;;;2.70;2.50;;;;;;;24.86;71.22;100938.97;4896246;29;20063;-72
2023/08/16 04:59:40;;;;;;;2.72;2.53;;;;;;;24.86;70.57;100938.97;4896836;29;20057;-72
2023/08/16 05:02:08;;;;;;;4.35;2.70;;;;;;;24.94;70.59;100933.13;4895139;29;20060;-72
2023/08/16 05:04:36;;;;;;;2.88;2.67;;;;;;;24.98;70.64;100943.59;4895994;29;20060;-72
2023/08/16 05:07:04;;;;;;;3.78;2.80;;;;;;;25.00;70.70;100942.06;4895289;29;20412;-72
2023/08/16 05:09:32;;;;;;;3.17;2.58;;;;;;;25.07;71.04;100944.19;4897087;29;20080;-72
2023/08/16 05:12:00;;;;;;;4.28;2.67;;;;;;;25.05;69.72;100946.53;4897109;29;20073;-72
2023/08/16 05:14:28;;;;;;;3.45;2.83;;;;;;;24.99;68.57;100953.63;4895511;29;20393;-72
2023/08/16 05:16:56;;;;;;;2.90;2.28;;;;;;;24.98;68.23;100952.81;4895875;29;20404;-72
2023/08/16 05:19:24;;;;;;;2.50;2.30;;;;;;;24.99;68.87;100956.41;4895715;29;20602;-72
2023/08/16 05:21:52;;;;;;;3.95;2.40;;;;;;;24.99;68.17;100967.59;4896689;29;20060;-72
2023/08/16 05:24:20;;;;;;;4.93;2.40;;;;;;;24.91;67.85;100975.03;4896090;29;20060;-72
2023/08/16 05:26:48;;;;;;;3.20;2.40;;;;;;;24.90;70.81;100968.66;4896618;29;20060;-72
2023/08/16 05:29:16;;;;;;;2.60;2.40;;;;;;;24.84;68.94;100964.53;4899026;29;20067;-72
2023/08/16 05:31:44;;;;;;;2.35;2.15;;;;;;;24.78;68.40;100972.38;4900995;29;20040;-72
2023/08/16 05:34:12;;;;;;;2.65;2.25;;;;;;;24.77;69.89;100969.94;4900533;29;20404;-72
2023/08/16 05:36:47;;;;;;;2.40;2.20;;;;;;;24.75;69.50;100975.09;4900340;29;20049;-72
2023/08/16 05:39:15;;;;;;;3.38;2.40;;;;;;;24.72;70.45;100971.06;4900561;29;20504;-72
2023/08/16 05:41:43;;;;;;;2.80;2.15;;;;;;;24.66;71.53;100976.16;4900618;29;20040;-72
2023/08/16 05:44:11;;;;;;;2.97;1.80;;;;;;;24.69;69.94;100975.41;4900320;29;20392;-71
2023/08/16 05:46:39;;;;;;;4.25;2.30;;;;;;;24.65;70.57;100974.53;4900109;29;20048;-72
2023/08/16 05:49:07;;;;;;;3.05;2.55;;;;;;;24.70;71.73;100974.22;4900574;29;20396;-72
2023/08/16 05:51:35;;;;;;;3.13;2.53;;;;;;;24.75;69.79;100977.91;4900537;29;20036;-72
2023/08/16 05:54:04;;;;;;;4.90;2.88;;;;;;;24.73;71.93;100974.66;4899901;29;20052;-72
2023/08/16 05:56:32;;;;;;;3.85;2.58;;;;;;;24.72;72.73;100981.44;4900053;29;20056;-72
2023/08/16 05:59:00;;;;;;;3.17;2.35;;;;;;;24.69;72.06;100975.41;4899894;29;20053;-72
2023/08/16 06:01:28;;;;;;;2.70;2.50;;;;;;;24.68;71.57;100981.38;4900659;29;20570;-72
2023/08/16 06:03:57;;;;;;;3.65;2.35;;;;;;;24.65;70.47;100988.53;4900913;29;20061;-72
2023/08/16 06:06:26;;;;;;;3.10;2.55;;;;;;;24.71;70.64;100983.44;4901086;29;20049;-73
2023/08/16 06:08:54;;;;;;;3.40;2.33;;;;;;;24.76;69.10;100983.13;4900803;29;20075;-71
2023/08/16 06:11:23;;;;;;;2.78;2.58;;;;;;;24.78;69.40;100988.38;4900678;29;20053;-72
2023/08/16 06:13:51;;;;;;;5.32;2.60;;;;;;;24.83;69.91;100980.50;4900682;29;20079;-72
2023/08/16 06:16:20;;;;;;;2.88;2.45;;;;;;;24.91;68.41;100975.88;4900509;29;20053;-72
2023/08/16 06:18:49;;;;;;;2.30;2.10;;;;;;;25.21;67.21;100986.44;4900816;29;20056;-72
2023/08/16 06:21:17;;;;;;;2.97;2.10;;;;;;;25.49;68.34;100988.16;4900565;29;20059;-72
2023/08/16 06:23:47;;;;;;;2.75;2.33;;;;;;;25.93;67.49;100983.28;4900723;29;20056;-72
2023/08/16 06:26:16;;;;;;;3.10;2.47;;;;;;;25.89;63.28;100986.03;4900970;29;20052;-72
2023/08/16 06:28:46;;;;;;;3.13;2.05;;;;;;;26.24;64.32;100994.59;4900417;29;20061;-72
2023/08/16 06:31:15;;;;;;;2.88;2.60;;;;;;;26.63;63.78;100990.72;4900481;29;20052;-72
2023/08/16 06:33:45;;;;;;;3.20;2.42;;;;;;;27.03;61.96;100994.81;4900924;29;20056;-72
2023/08/16 06:36:13;;;;;;;2.28;2.00;;;;;;;27.21;60.01;100991.38;4899482;29;20400;-72
2023/08/16 06:38:43;;;;;;;3.15;2.45;;;;;;;27.45;58.94;100989.22;4899979;29;20412;-72
2023/08/16 06:41:12;;;;;;;6.15;2.25;;;;;;;27.42;58.89;100996.41;4899585;29;20056;-72
2023/08/16 06:43:41;;;;;;;2.45;2.25;;;;;;;27.54;58.98;101000.94;4899186;29;20067;-72
2023/08/16 06:46:10;;;;;;;6.53;2.25;;;;;;;28.11;58.04;101002.59;4899166;29;20057;-73
2023/08/16 06:48:38;;;;;;;3.72;2.10;;;;;;;28.43;56.64;100998.41;4899181;29;20055;-72
2023/08/16 06:51:07;;;;;;;3.58;2.60;;;;;;;28.43;57.30;101006.84;4899576;29;20906;-72
2023/08/16 06:53:38;;;;;;;4.68;2.25;;;;;;;28.31;56.62;100999.56;4899126;29;20052;-72
2023/08/16 06:56:07;;;;;;;3.47;2.50;;;;;;;28.46;57.01;100988.38;4899289;29;20056;-73
2023/08/16 06:58:35;;;;;;;3.78;2.70;;;;;;;28.80;56.83;100993.75;4899742;29;20052;-73
2023/08/16 07:01:04;;;;;;;3.72;2.20;;;;;;;28.92;54.19;100995.41;4899695;29;20079;-73
2023/08/16 07:03:33;;;;;;;3.08;2.05;;;;;;;28.99;54.64;100991.84;4899300;29;20048;-73
2023/08/16 07:06:01;;;;;;;1.95;1.75;;;;;;;28.82;53.48;100991.34;4899445;29;20060;-73
2023/08/16 07:08:30;;;;;;;2.47;2.28;;;;;;;28.46;56.64;100999.63;4897643;29;20052;-73
2023/08/16 07:10:58;;;;;;;3.17;2.30;;;;;;;28.10;56.31;101003.81;4899244;29;20056;-73
2023/08/16 07:13:26;;;;;;;2.35;2.20;;;;;;;28.08;58.13;100997.78;4899415;29;20049;-73
2023/08/16 07:15:55;;;;;;;2.45;2.25;;;;;;;28.02;58.84;101002.16;4898330;29;20059;-73
2023/08/16 07:18:26;;;;;;;3.90;2.53;;;;;;;27.96;60.56;101003.72;4899893;29;20056;-73
2023/08/16 07:20:55;;;;;;;9.75;3.03;;;;;;;27.76;62.12;100999.16;4899797;29;20076;-73
2023/08/16 07:23:23;;;;;;;3.50;2.42;;;;;;;27.69;61.25;101003.91;4899832;29;20065;-73
2023/08/16 07:25:58;;;;;;;5.00;2.40;;;;;;;27.66;61.09;101004.69;4900151;29;20056;-73
2023/08/16 07:28:27;;;;;;;2.83;2.53;;;;;;;27.67;61.59;100997.88;4899218;29;20060;-72
2023/08/16 07:30:56;;;;;;;4.53;2.50;;;;;;;27.73;60.64;101005.56;4899430;29;20079;-73
2023/08/16 07:33:24;;;;;;;2.88;2.30;;;;;;;27.65;60.35;101008.69;4899052;29;20045;-73
2023/08/16 07:35:53;;;;;;;3.05;2.38;;;;;;;27.81;58.87;101005.63;4899498;29;20052;-73
2023/08/16 07:38:21;;;;;;;3.30;2.60;;;;;;;28.15;57.20;101013.91;4899304;29;20060;-72
2023/08/16 07:40:50;;;;;;;3.15;2.80;;;;;;;28.76;56.87;101013.47;4898836;29;20069;-72
2023/08/16 07:43:18;;;;;;;4.88;3.00;;;;;;;29.13;57.74;101011.59;4899262;29;20052;-72
2023/08/16 07:45:52;;;;;;;6.80;2.30;;;;;;;29.48;53.67;101014.91;4898763;29;20060;-73
2023/08/16 07:48:21;;;;;;;2.80;2.55;;;;;;;29.37;53.15;101015.66;4898947;29;20063;-73
2023/08/16 07:50:50;;;;;;;3.25;2.30;;;;;;;29.74;54.09;101022.19;4898275;29;20061;-74
2023/08/16 07:53:18;;;;;;;3.30;2.25;;;;;;;30.24;52.83;101017.72;4898265;29;20416;-73
2023/08/16 07:55:47;;;;;;;4.55;2.45;;;;;;;30.47;50.67;101018.47;4898455;29;20044;-73
2023/08/16 07:58:15;;;;;;;3.72;2.53;;;;;;;30.60;49.98;101022.47;4898796;29;20044;-73
2023/08/16 08:00:48;;;;;;;3.55;3.25;;;;;;;30.82;50.29;101023.22;4898420;29;20048;-73
2023/08/16 08:03:17;;;;;;;4.88;2.75;;;;;;;30.81;49.89;101021.59;4897914;29;20053;-73
2023/08/16 08:05:46;;;;;;;4.95;2.80;;;;;;;31.27;47.58;101018.94;4898196;29;20048;-73
2023/08/16 08:08:14;;;;;;;3.78;2.47;;;;;;;31.47;48.36;101024.88;4897950;29;20072;-73
2023/08/16 08:10:44;;;;;;;2.60;2.40;;;;;;;31.37;48.26;101020.09;4898699;29;20064;-73
2023/08/16 08:13:13;;;;;;;3.70;2.97;;;;;;;31.09;48.04;101021.88;4898307;29;20059;-72
2023/08/16 08:15:41;;;;;;;2.70;2.38;;;;;;;31.28;48.53;101026.19;4898638;29;20068;-73
2023/08/16 08:18:10;;;;;;;2.67;2.47;;;;;;;31.59;48.11;101023.59;4898255;29;20056;-73
2023/08/16 08:20:38;;;;;;;2.85;2.47;;;;;;;31.53;45.08;101028.06;4897959;29;20056;-73
2023/08/16 08:23:07;;;;;;;3.33;3.03;;;;;;;31.94;45.97;101028.56;4897802;29;20064;-73
2023/08/16 08:25:35;;;;;;;3.50;2.60;;;;;;;32.00;45.66;101024.88;4897967;29;20057;-72
2023/08/16 08:28:04;;;;;;;3.47;3.17;;;;;;;31.42;44.69;101027.34;4898388;29;20048;-73
2023/08/16 08:30:33;;;;;;;3.50;3.17;;;;;;;31.87;45.78;101027.41;4898005;29;20496;-72
2023/08/16 08:33:02;;;;;;;3.20;2.90;;;;;;;32.00;44.71;101036.19;4897963;29;20396;-73
2023/08/16 08:35:33;;;;;;;3.58;3.00;;;;;;;32.38;44.94;101015.59;4897719;29;20079;-73
2023/08/16 08:38:02;;;;;;;5.32;3.33;;;;;;;32.35;44.06;101015.63;4898109;29;20067;-72
2023/08/16 08:40:31;;;;;;;5.18;3.40;;;;;;;32.20;44.49;101009.31;4898073;29;20056;-72
2023/08/16 08:43:00;;;;;;;3.10;2.88;;;;;;;32.54;43.59;101017.06;4897967;29;20052;-73
2023/08/16 08:45:29;;;;;;;4.05;3.65;;;;;;;32.78;42.43;101014.34;4898216;29;20138;-73
2023/08/16 08:47:59;;;;;;;2.92;2.70;;;;;;;32.86;43.40;101015.84;4897678;29;20500;-71
2023/08/16 08:50:28;;;;;;;3.50;3.20;;;;;;;32.71;41.71;101018.06;4897332;29;20052;-73
2023/08/16 08:52:57;;;;;;;5.65;3.25;;;;;;;32.88;43.03;101016.22;4898568;29;20048;-71
2023/08/16 08:55:29;;;;;;;4.15;3.75;;;;;;;33.13;42.81;101022.81;4897882;29;20072;-72
2023/08/16 08:58:01;;;;;;;3.92;3.58;;;;;;;33.43;42.30;101012.63;4897454;29;20064;-72
2023/08/16 09:00:33;;;;;;;4.38;3.50;;;;;;;33.40;41.69;101014.28;4896840;29;20061;-72
2023/08/16 09:03:07;;;;;;;4.20;3.80;;;;;;;33.22;41.27;101015.38;4895912;29;20055;-72
2023/08/16 09:05:38;;;;;;;5.20;3.70;;;;;;;33.08;41.06;101018.41;4896996;29;20374;-72
2023/08/16 09:08:08;;;;;;;4.20;3.85;;;;;;;33.16;41.44;101011.41;4896809;29;20052;-73
2023/08/16 09:10:37;;;;;;;6.53;3.70;;;;;;;33.56;39.47;101018.53;4897028;29;20057;-73
2023/08/16 09:13:08;;;;;;;5.80;4.47;;;;;;;33.46;39.94;101023.09;4897363;29;20045;-72
2023/08/16 09:15:37;;;;;;;4.47;4.10;;;;;;;33.64;39.23;101017.19;4896685;29;20060;-72
2023/08/16 09:18:11;;;;;;;4.15;3.72;;;;;;;33.63;40.22;101016.38;4897221;29;20052;-72
2023/08/16 09:20:45;;;;;;;6.07;4.32;;;;;;;33.59;41.85;101023.34;4897137;29;20060;-71
2023/08/16 09:23:14;;;;;;;4.80;4.38;;;;;;;33.76;40.93;101018.59;4895721;29;20067;-72
2023/08/16 09:25:44;;;;;;;4.38;3.97;;;;;;;33.82;38.28;101016.06;4897158;29;20064;-73
2023/08/16 09:28:14;;;;;;;4.53;4.13;;;;;;;33.54;40.47;101004.78;4897055;29;20049;-72
2023/08/16 09:30:43;;;;;;;5.63;4.50;;;;;;;33.36;40.34;101016.38;4897380;29;20056;-72
2023/08/16 09:33:18;;;;;;;4.75;4.35;;;;;;;33.55;39.35;101002.72;4896839;29;20045;-72
2023/08/16 09:35:51;;;;;;;4.47;4.07;;;;;;;33.40;40.39;101007.81;4896986;29;20078;-72
2023/08/16 09:38:22;;;;;;;4.90;4.27;;;;;;;33.30;39.89;101006.75;4897251;29;20061;-72
2023/08/16 09:40:54;;;;;;;4.90;4.40;;;;;;;33.63;39.85;101007.84;4897277;29;20061;-72
2023/08/16 09:43:22;;;;;;;4.45;4.05;;;;;;;33.86;38.56;101005.47;4897099;29;20059;-73
2023/08/16 09:45:54;;;;;;;4.45;4.05;;;;;;;33.92;39.71;101001.69;4897130;29;20067;-72
2023/08/16 09:48:25;;;;;;;5.25;4.40;;;;;;;33.90;38.54;101012.66;4897251;29;20063;-72
2023/08/16 09:51:03;;;;;;;4.63;4.15;;;;;;;34.15;38.63;101007.78;4897043;29;20173;-73
2023/08/16 09:53:35;;;;;;;4.22;3.88;;;;;;;34.53;39.85;101004.59;4897100;29;20079;-72
2023/08/16 09:56:07;;;;;;;4.38;3.97;;;;;;;34.51;38.92;100997.75;4897346;29;20140;-73
2023/08/16 09:58:38;;;;;;;4.40;3.95;;;;;;;34.48;38.13;101002.28;4897449;29;20049;-72
2023/08/16 10:01:07;;;;;;;3.90;3.60;;;;;;;34.40;37.66;101004.44;4906972;29;20056;-70
2023/08/16 10:03:39;;;;;;;4.15;3.85;;;;;;;34.62;36.57;100997.56;4916829;29;20044;-72
2023/08/16 10:06:08;;;;;;;6.88;4.30;;;;;;;34.42;37.05;100992.66;4916427;29;20048;-72
2023/08/16 10:08:48;;;;;;;4.43;4.03;;;;;;;34.26;36.39;100999.84;4916621;29;20056;-72
2023/08/16 10:11:17;;;;;;;4.28;3.90;;;;;;;34.53;37.04;100989.59;4915532;29;20407;-72
2023/08/16 10:13:46;;;;;;;4.35;3.95;;;;;;;34.30;37.35;100991.25;4915019;29;20056;-73
2023/08/16 10:16:15;;;;;;;4.28;3.97;;;;;;;34.63;38.89;100984.94;4918702;29;20419;-73
2023/08/16 10:18:46;;;;;;;5.45;4.50;;;;;;;34.80;37.25;100985.81;4918978;29;20059;-72
2023/08/16 10:21:16;;;;;;;4.55;4.15;;;;;;;34.73;36.92;100980.28;4918900;29;20419;-72
2023/08/16 10:23:47;;;;;;;4.22;3.83;;;;;;;35.07;38.17;100974.22;4918797;29;20044;-73
2023/08/16 10:26:19;;;;;;;4.25;3.95;;;;;;;35.13;37.01;100971.66;4917350;29;20056;-73
2023/08/16 10:28:54;;;;;;;5.18;4.28;;;;;;;34.74;38.31;100965.63;4918785;29;20070;-72
2023/08/16 10:31:27;;;;;;;4.68;4.28;;;;;;;34.87;35.13;100965.75;4918936;29;20051;-72
2023/08/16 10:33:58;;;;;;;4.97;4.57;;;;;;;35.08;36.07;100960.81;4918932;29;20067;-72
2023/08/16 10:36:27;;;;;;;5.13;4.55;;;;;;;34.96;36.35;100965.94;4918704;29;20052;-71
2023/08/16 10:38:56;;;;;;;7.22;4.18;;;;;;;34.95;37.33;100957.84;4919537;29;20052;-71
2023/08/16 10:41:27;;;;;;;5.10;4.60;;;;;;;34.74;40.12;100959.94;4918819;29;20056;-71
2023/08/16 10:43:55;;;;;;;5.03;4.53;;;;;;;34.82;35.92;100964.22;4918748;29;20055;-72
2023/08/16 10:46:34;;;;;;;5.20;4.70;;;;;;;34.89;37.41;100946.19;4919026;29;20060;-72
2023/08/16 10:49:06;;;;;;;4.80;4.40;;;;;;;34.48;37.64;100945.47;4919113;29;20066;-71
2023/08/16 10:51:50;;;;;;;5.00;4.60;;;;;;;34.36;38.13;100946.13;4918818;29;20166;-70
2023/08/16 10:54:32;;;;;;;5.10;4.68;;;;;;;34.55;36.94;100945.28;4918574;29;20056;-71
2023/08/16 10:57:05;;;;;;;6.10;4.90;;;;;;;35.42;35.41;100951.06;4919337;29;20079;-72
2023/08/16 10:59:38;;;;;;;6.53;4.90;;;;;;;35.28;37.09;100952.22;4918912;29;20518;-71
2023/08/16 11:02:14;;;;;;;5.27;4.80;;;;;;;35.13;37.24;100946.06;4918993;29;20055;-71
2023/08/16 11:04:45;;;;;;;5.38;4.70;;;;;;;35.51;36.44;100947.56;4918995;29;20047;-72
2023/08/16 11:07:14;;;;;;;5.97;5.10;;;;;;;35.45;36.63;100944.47;4919164;29;20566;-72
2023/08/16 11:09:43;;;;;;;5.65;4.88;;;;;;;35.74;35.44;100952.31;4919145;29;20064;-70
2023/08/16 11:12:14;;;;;;;5.07;4.57;;;;;;;35.87;36.38;100946.66;4918727;29;20087;-72
2023/08/16 11:14:46;;;;;;;5.45;4.93;;;;;;;36.10;35.97;100946.88;4919038;29;20060;-73
2023/08/16 11:17:15;;;;;;;5.32;4.93;;;;;;;36.28;35.22;100946.38;4919071;29;20052;-72
2023/08/16 11:19:43;;;;;;;5.22;4.70;;;;;;;36.15;34.28;100944.28;4918382;29;20060;-72
2023/08/16 11:22:12;;;;;;;5.63;4.95;;;;;;;35.73;34.96;100947.84;4917552;29;20137;-72
2023/08/16 11:24:45;;;;;;;5.22;4.72;;;;;;;35.74;35.96;100942.94;4917382;29;20055;-73
2023/08/16 11:27:22;;;;;;;5.57;5.07;;;;;;;35.98;35.36;100937.81;4916687;29;20400;-73
2023/08/16 11:29:51;;;;;;;5.35;4.85;;;;;;;35.99;36.59;100935.75;4917453;29;20503;-73
2023/08/16 11:32:40;;;;;;;6.20;5.00;;;;;;;36.72;35.50;100925.94;4917726;29;20056;-72
2023/08/16 11:35:11;;;;;;;5.57;5.10;;;;;;;36.62;33.42;100930.72;4917648;29;20407;-72